createdAt,value
2023-05-02T00:00:50.662Z,8.13
2023-05-02T00:03:17.369Z,8.52
2023-05-02T00:05:44.523Z,8.40
2023-05-02T00:08:11.910Z,9.18
2023-05-02T00:10:38.289Z,8.77
2023-05-02T00:13:04.632Z,9.07
2023-05-02T00:15:31.079Z,9.30
2023-05-02T00:17:57.429Z,10.33
2023-05-02T00:20:24.008Z,10.43
2023-05-02T00:22:50.358Z,10.52
2023-05-02T00:25:17.185Z,10.68
2023-05-02T00:27:46.512Z,9.88
2023-05-02T00:30:13.975Z,11.20
2023-05-02T00:32:40.602Z,10.38
2023-05-02T00:35:07.931Z,10.60
2023-05-02T00:37:34.364Z,11.48
2023-05-02T00:40:01.056Z,12.05
2023-05-02T00:42:31.389Z,12.27
2023-05-02T00:44:57.795Z,11.82
2023-05-02T00:47:24.431Z,12.23
2023-05-02T00:49:50.951Z,13.45
2023-05-02T00:52:17.364Z,12.98
2023-05-02T00:54:43.984Z,13.33
2023-05-02T00:57:10.848Z,13.25
2023-05-02T00:59:37.661Z,14.10
2023-05-02T01:02:18.913Z,13.95
2023-05-02T01:05:10.423Z,14.52
2023-05-02T01:07:58.142Z,14.30
2023-05-02T01:10:30.692Z,14.90
2023-05-02T01:13:19.245Z,14.52
2023-05-02T01:15:48.420Z,15.93
2023-05-02T01:18:18.435Z,14.57
2023-05-02T01:20:48.090Z,15.37
2023-05-02T01:23:30.771Z,16.38
2023-05-02T01:26:24.152Z,16.80
2023-05-02T01:29:03.719Z,16.55
2023-05-02T01:31:35.414Z,17.17
2023-05-02T01:34:04.272Z,16.57
2023-05-02T01:36:32.984Z,16.58
2023-05-02T01:39:01.433Z,16.90
2023-05-02T01:41:30.020Z,16.80
2023-05-02T01:43:58.992Z,16.33
2023-05-02T01:46:27.755Z,16.17
2023-05-02T01:48:57.283Z,17.45
2023-05-02T01:51:31.727Z,15.90
2023-05-02T01:54:01.313Z,17.25
2023-05-02T01:56:31.974Z,17.00
2023-05-02T01:59:00.169Z,15.70
2023-05-02T02:01:28.919Z,17.17
2023-05-02T02:03:57.648Z,18.15
2023-05-02T02:06:24.812Z,18.27
2023-05-02T02:08:51.417Z,18.85
2023-05-02T02:11:24.898Z,19.53
2023-05-02T02:13:59.419Z,20.90
2023-05-02T02:16:30.790Z,20.45
2023-05-02T02:19:04.322Z,21.60
2023-05-02T02:21:32.120Z,21.30
2023-05-02T02:24:02.560Z,21.10
2023-05-02T02:26:28.973Z,20.92
2023-05-02T02:28:56.062Z,21.60
2023-05-02T02:31:22.578Z,21.42
2023-05-02T02:33:49.037Z,21.15
2023-05-02T02:36:24.476Z,20.00
2023-05-02T02:39:00.769Z,22.17
2023-05-02T02:41:31.852Z,22.40
2023-05-02T02:44:05.828Z,22.23
2023-05-02T02:46:55.348Z,21.70
2023-05-02T02:49:24.885Z,22.33
2023-05-02T02:52:14.995Z,22.63
2023-05-02T02:54:47.117Z,22.73
2023-05-02T02:57:24.461Z,23.25
2023-05-02T03:00:02.472Z,23.85
2023-05-02T03:02:32.079Z,23.10
2023-05-02T03:04:59.913Z,22.17
2023-05-02T03:07:28.793Z,24.15
2023-05-02T03:09:55.232Z,22.27
2023-05-02T03:12:21.796Z,21.95
2023-05-02T03:14:48.253Z,23.07
2023-05-02T03:17:14.647Z,23.75
2023-05-02T03:19:41.004Z,22.50
2023-05-02T03:22:07.389Z,21.42
2023-05-02T03:24:33.737Z,22.55
2023-05-02T03:27:00.162Z,22.70
2023-05-02T03:29:26.820Z,22.05
2023-05-02T03:31:53.212Z,22.17
2023-05-02T03:34:21.866Z,21.45
2023-05-02T03:36:48.262Z,21.27
2023-05-02T03:39:15.221Z,21.20
2023-05-02T03:41:42.360Z,20.35
2023-05-02T03:44:08.774Z,21.98
2023-05-02T03:46:36.697Z,22.45
2023-05-02T03:49:03.151Z,22.83
2023-05-02T03:51:29.536Z,23.30
2023-05-02T03:53:55.886Z,23.88
2023-05-02T03:56:22.279Z,25.42
2023-05-02T03:58:48.957Z,23.17
2023-05-02T04:01:16.412Z,24.48
2023-05-02T04:03:43.157Z,24.83
2023-05-02T04:06:09.765Z,25.95
2023-05-02T04:08:36.936Z,25.70
2023-05-02T04:11:03.285Z,25.30
2023-05-02T04:13:29.662Z,25.63
2023-05-02T04:15:56.690Z,25.97
2023-05-02T04:18:23.066Z,25.98
2023-05-02T04:20:50.241Z,26.10
2023-05-02T04:23:17.534Z,26.27
2023-05-02T04:25:53.964Z,26.83
2023-05-02T04:28:23.973Z,26.03
2023-05-02T04:30:50.621Z,27.25
2023-05-02T04:33:18.532Z,26.23
2023-05-02T04:35:44.909Z,26.63
2023-05-02T04:38:11.263Z,26.48
2023-05-02T04:40:37.725Z,25.37
2023-05-02T04:43:04.215Z,25.65
2023-05-02T04:45:30.553Z,24.38
2023-05-02T04:47:56.985Z,23.70
2023-05-02T04:50:23.413Z,23.73
2023-05-02T04:52:50.083Z,23.50
2023-05-02T04:55:16.469Z,24.02
2023-05-02T04:57:42.823Z,24.35
2023-05-02T05:00:09.627Z,24.55
2023-05-02T05:02:36.192Z,22.15
2023-05-02T05:05:02.708Z,23.43
2023-05-02T05:07:29.228Z,23.40
2023-05-02T05:09:55.791Z,22.65
2023-05-02T05:12:22.229Z,23.25
2023-05-02T05:14:49.842Z,23.63
2023-05-02T05:17:16.397Z,22.80
2023-05-02T05:19:42.803Z,23.05
2023-05-02T05:22:09.838Z,21.42
2023-05-02T05:24:36.255Z,21.90
2023-05-02T05:27:02.973Z,21.77
2023-05-02T05:29:31.549Z,21.43
2023-05-02T05:31:58.002Z,22.02
2023-05-02T05:34:25.102Z,21.88
2023-05-02T05:36:51.857Z,21.23
2023-05-02T05:39:18.216Z,20.90
2023-05-02T05:41:44.558Z,20.40
2023-05-02T05:44:10.985Z,19.95
2023-05-02T05:46:37.923Z,21.00
2023-05-02T05:49:04.327Z,20.75
2023-05-02T05:51:31.425Z,20.25
2023-05-02T05:53:57.815Z,19.53
2023-05-02T05:56:24.236Z,21.25
2023-05-02T05:58:50.709Z,19.58
2023-05-02T06:01:17.113Z,19.67
2023-05-02T06:03:43.523Z,19.60
2023-05-02T06:06:10.059Z,19.40
2023-05-02T06:08:36.594Z,19.73
2023-05-02T06:11:02.954Z,19.63
2023-05-02T06:13:29.333Z,19.13
2023-05-02T06:16:00.801Z,19.33
2023-05-02T06:18:27.194Z,18.90
2023-05-02T06:20:53.557Z,18.05
2023-05-02T06:23:19.908Z,18.25
2023-05-02T06:25:46.321Z,17.70
2023-05-02T06:28:12.734Z,16.98
2023-05-02T06:30:39.238Z,16.90
2023-05-02T06:33:05.898Z,16.30
2023-05-02T06:35:32.340Z,14.07
2023-05-02T06:37:58.737Z,12.93
2023-05-02T06:40:25.224Z,13.38
2023-05-02T06:42:51.581Z,9.93
2023-05-02T06:45:17.936Z,9.05
2023-05-02T06:47:44.373Z,9.18
2023-05-02T06:50:11.530Z,8.77
2023-05-02T06:52:37.893Z,9.23
2023-05-02T06:55:05.472Z,9.67
2023-05-02T06:57:31.921Z,10.60
2023-05-02T06:59:58.874Z,10.93
2023-05-02T07:02:25.507Z,11.40
2023-05-02T07:04:51.943Z,13.10
2023-05-02T07:07:20.455Z,13.53
2023-05-02T07:09:46.850Z,13.75
2023-05-02T07:12:13.205Z,13.68
2023-05-02T07:14:39.640Z,12.80
2023-05-02T07:17:06.317Z,12.73
2023-05-02T07:19:33.173Z,12.57
2023-05-02T07:21:59.615Z,12.98
2023-05-02T07:24:26.360Z,13.48
2023-05-02T07:26:52.740Z,12.75
2023-05-02T07:29:19.083Z,12.10
2023-05-02T07:31:45.643Z,11.70
2023-05-02T07:34:12.253Z,12.68
2023-05-02T07:36:38.900Z,12.25
2023-05-02T07:39:05.426Z,12.88
2023-05-02T07:41:31.844Z,12.98
2023-05-02T07:43:58.248Z,11.57
2023-05-02T07:46:25.760Z,11.35
2023-05-02T07:48:53.939Z,10.30
2023-05-02T07:51:21.620Z,10.70
2023-05-02T07:53:52.896Z,9.95
2023-05-02T07:56:19.441Z,9.13
2023-05-02T07:58:45.783Z,9.18
2023-05-02T08:01:12.148Z,9.93
2023-05-02T08:03:38.726Z,9.43
2023-05-02T08:06:05.581Z,9.95
2023-05-02T08:08:32.038Z,9.70
2023-05-02T08:10:58.395Z,9.65
2023-05-02T08:13:24.795Z,9.88
2023-05-02T08:15:51.273Z,8.02
2023-05-02T08:18:17.630Z,9.23
2023-05-02T08:20:44.053Z,8.67
2023-05-02T08:23:10.650Z,8.63
2023-05-02T08:25:37.058Z,8.25
2023-05-02T08:28:03.536Z,8.23
2023-05-02T08:30:29.945Z,8.95
2023-05-02T08:32:56.321Z,8.30
2023-05-02T08:35:22.761Z,7.78
2023-05-02T08:37:49.131Z,8.27
2023-05-02T08:40:22.090Z,7.43
2023-05-02T08:42:57.353Z,7.07
2023-05-02T08:45:24.699Z,7.63
2023-05-02T08:47:52.034Z,7.47
2023-05-02T08:50:19.248Z,7.95
2023-05-02T08:52:46.018Z,8.02
2023-05-02T08:55:12.974Z,8.15
2023-05-02T08:57:40.195Z,8.30
2023-05-02T09:00:07.995Z,7.65
2023-05-02T09:02:34.422Z,7.93
2023-05-02T09:05:11.735Z,7.75
2023-05-02T09:07:55.947Z,7.93
2023-05-02T09:10:26.217Z,6.90
2023-05-02T09:12:52.568Z,7.85
2023-05-02T09:15:21.061Z,8.60
2023-05-02T09:17:48.805Z,7.88
2023-05-02T09:20:16.450Z,7.00
2023-05-02T09:22:51.116Z,6.17
2023-05-02T09:25:19.189Z,5.63
2023-05-02T09:27:51.251Z,5.90
2023-05-02T09:30:25.837Z,5.80
2023-05-02T09:32:55.233Z,5.85
2023-05-02T09:35:24.829Z,5.60
2023-05-02T09:37:57.798Z,6.07
2023-05-02T09:40:25.228Z,6.57
2023-05-02T09:42:52.541Z,5.70
2023-05-02T09:45:24.310Z,5.90
2023-05-02T09:47:51.635Z,5.40
2023-05-02T09:50:37.926Z,4.72
2023-05-02T09:53:09.654Z,5.20
2023-05-02T09:55:36.292Z,5.40
2023-05-02T09:58:03.370Z,5.60
2023-05-02T10:00:39.894Z,5.20
2023-05-02T10:03:07.414Z,4.85
2023-05-02T10:05:37.926Z,5.53
2023-05-02T10:08:06.301Z,5.20
2023-05-02T10:10:35.962Z,5.38
2023-05-02T10:13:04.402Z,5.13
2023-05-02T10:15:32.789Z,5.50
2023-05-02T10:18:01.307Z,5.65
2023-05-02T10:20:34.917Z,5.85
2023-05-02T10:23:02.075Z,6.00
2023-05-02T10:25:28.935Z,5.83
2023-05-02T10:27:59.362Z,5.75
2023-05-02T10:30:26.659Z,6.03
2023-05-02T10:32:54.523Z,5.57
2023-05-02T10:35:21.584Z,5.45
2023-05-02T10:37:49.712Z,5.77
2023-05-02T10:40:16.275Z,5.20
2023-05-02T10:42:46.123Z,4.75
2023-05-02T10:45:35.337Z,5.25
2023-05-02T10:48:18.155Z,6.13
2023-05-02T10:50:51.325Z,5.63
2023-05-02T10:53:24.599Z,5.55
2023-05-02T10:56:27.798Z,5.10
2023-05-02T10:59:34.592Z,4.97
2023-05-02T11:02:06.959Z,4.90
2023-05-02T11:05:02.704Z,4.33
2023-05-02T11:07:36.955Z,4.32
2023-05-02T11:10:27.397Z,3.60
2023-05-02T11:13:00.914Z,2.10
2023-05-02T11:15:30.068Z,2.53
2023-05-02T11:18:09.377Z,1.90
2023-05-02T11:20:39.452Z,2.30
2023-05-02T11:23:27.064Z,2.40
2023-05-02T11:25:56.300Z,2.60
2023-05-02T11:28:41.503Z,2.80
2023-05-02T11:31:28.191Z,2.60
2023-05-02T11:34:02.742Z,2.40
2023-05-02T11:36:34.065Z,2.30
2023-05-02T11:39:01.716Z,2.00
2023-05-02T11:41:41.382Z,1.98
2023-05-02T11:44:08.356Z,2.27
2023-05-02T11:46:39.459Z,2.33
2023-05-02T11:49:08.987Z,2.60
2023-05-02T11:51:36.579Z,2.65
2023-05-02T11:54:03.875Z,2.80
2023-05-02T11:56:30.350Z,2.83
2023-05-02T11:59:01.102Z,3.38
2023-05-02T12:01:27.592Z,3.15
2023-05-02T12:04:08.346Z,3.50
2023-05-02T12:06:35.420Z,3.45
2023-05-02T12:09:10.507Z,3.30
2023-05-02T12:11:38.551Z,3.20
2023-05-02T12:14:06.349Z,3.42
2023-05-02T12:16:33.230Z,3.40
2023-05-02T12:19:01.029Z,3.00
2023-05-02T12:21:32.959Z,3.07
2023-05-02T12:24:00.815Z,3.42
2023-05-02T12:26:30.782Z,3.42
2023-05-02T12:28:58.868Z,4.00
2023-05-02T12:31:27.207Z,4.53
2023-05-02T12:33:57.354Z,4.40
2023-05-02T12:36:24.449Z,3.85
2023-05-02T12:38:56.990Z,4.20
2023-05-02T12:41:37.506Z,4.80
2023-05-02T12:44:05.374Z,5.38
2023-05-02T12:46:32.401Z,6.13
2023-05-02T12:49:08.181Z,5.90
2023-05-02T12:51:35.257Z,6.28
2023-05-02T12:54:02.293Z,5.63
2023-05-02T12:56:32.200Z,5.63
2023-05-02T12:59:01.324Z,5.60
2023-05-02T13:01:28.665Z,5.53
2023-05-02T13:03:55.443Z,5.25
2023-05-02T13:06:21.965Z,5.25
2023-05-02T13:08:48.406Z,4.88
2023-05-02T13:11:15.889Z,4.97
2023-05-02T13:13:42.249Z,3.92
2023-05-02T13:16:08.703Z,4.70
2023-05-02T13:18:35.227Z,4.75
2023-05-02T13:21:01.618Z,4.10
2023-05-02T13:23:27.967Z,3.60
2023-05-02T13:25:54.345Z,3.50
2023-05-02T13:28:20.824Z,4.30
2023-05-02T13:30:47.250Z,4.00
2023-05-02T13:33:13.704Z,4.20
2023-05-02T13:35:40.114Z,3.60
2023-05-02T13:38:06.667Z,4.05
2023-05-02T13:40:33.055Z,4.47
2023-05-02T13:42:59.457Z,4.70
2023-05-02T13:45:25.977Z,4.10
2023-05-02T13:47:52.448Z,4.57
2023-05-02T13:50:18.864Z,5.00
2023-05-02T13:52:47.719Z,4.57
2023-05-02T13:55:15.432Z,4.47
2023-05-02T13:57:41.783Z,4.18
2023-05-02T14:00:09.788Z,4.33
2023-05-02T14:02:36.832Z,4.45
2023-05-02T14:05:03.385Z,4.38
2023-05-02T14:07:30.809Z,4.40
2023-05-02T14:09:57.276Z,4.90
2023-05-02T14:12:23.796Z,4.50
2023-05-02T14:14:50.176Z,4.50
2023-05-02T14:17:16.613Z,4.82
2023-05-02T14:19:42.986Z,4.95
2023-05-02T14:22:09.406Z,4.57
2023-05-02T14:24:35.752Z,4.40
2023-05-02T14:27:02.223Z,4.00
2023-05-02T14:29:28.565Z,3.80
2023-05-02T14:31:54.975Z,3.60
2023-05-02T14:34:21.957Z,3.85
2023-05-02T14:36:48.376Z,3.73
2023-05-02T14:39:14.765Z,3.40
2023-05-02T14:41:41.503Z,3.85
2023-05-02T14:44:07.866Z,3.25
2023-05-02T14:46:34.443Z,2.88
2023-05-02T14:49:01.002Z,3.00
2023-05-02T14:51:27.368Z,3.40
2023-05-02T14:53:54.291Z,2.72
2023-05-02T14:56:20.790Z,3.20
2023-05-02T14:58:47.395Z,3.00
2023-05-02T15:01:21.264Z,2.80
2023-05-02T15:04:05.230Z,2.75
2023-05-02T15:06:33.079Z,2.70
2023-05-02T15:08:59.811Z,2.85
2023-05-02T15:11:26.210Z,2.80
2023-05-02T15:13:52.586Z,2.93
2023-05-02T15:16:19.071Z,3.10
2023-05-02T15:18:45.654Z,3.20
2023-05-02T15:21:12.248Z,3.10
2023-05-02T15:23:38.602Z,3.17
2023-05-02T15:26:05.227Z,3.10
2023-05-02T15:28:31.684Z,3.25
2023-05-02T15:30:58.161Z,3.30
2023-05-02T15:33:25.111Z,2.88
2023-05-02T15:35:57.992Z,3.70
2023-05-02T15:38:24.714Z,3.73
2023-05-02T15:40:56.162Z,3.92
2023-05-02T15:43:23.365Z,4.10
2023-05-02T15:45:54.488Z,4.45
2023-05-02T15:48:22.036Z,4.20
2023-05-02T15:50:48.937Z,4.37
2023-05-02T15:53:16.697Z,4.22
2023-05-02T15:55:45.666Z,4.28
2023-05-02T15:58:16.425Z,4.57
2023-05-02T16:00:43.203Z,4.90
2023-05-02T16:03:09.918Z,5.30
2023-05-02T16:05:36.619Z,5.30
2023-05-02T16:08:03.129Z,5.60
2023-05-02T16:10:29.894Z,5.22
2023-05-02T16:12:56.414Z,5.35
2023-05-02T16:15:23.137Z,5.23
2023-05-02T16:17:50.283Z,5.40
2023-05-02T16:20:17.871Z,5.50
2023-05-02T16:22:48.409Z,5.07
2023-05-02T16:25:16.618Z,5.20
2023-05-02T16:27:43.236Z,5.20
2023-05-02T16:30:10.114Z,5.07
2023-05-02T16:32:40.450Z,5.20
2023-05-02T16:35:10.622Z,4.95
2023-05-02T16:37:37.031Z,4.90
2023-05-02T16:40:05.954Z,4.87
2023-05-02T16:42:32.892Z,5.03
2023-05-02T16:44:59.440Z,5.15
2023-05-02T16:47:26.808Z,4.95
2023-05-02T16:49:54.805Z,5.30
2023-05-02T16:52:21.774Z,5.00
2023-05-02T16:54:48.374Z,5.28
2023-05-02T16:57:19.793Z,4.85
2023-05-02T16:59:51.168Z,4.57
2023-05-02T17:02:19.971Z,4.90
2023-05-02T17:04:46.672Z,5.17
2023-05-02T17:07:13.169Z,4.65
2023-05-02T17:09:40.834Z,4.82
2023-05-02T17:12:08.561Z,4.90
2023-05-02T17:14:34.950Z,4.82
2023-05-02T17:17:02.718Z,5.33
2023-05-02T17:19:29.575Z,4.90
2023-05-02T17:21:57.864Z,5.20
2023-05-02T17:24:24.661Z,5.10
2023-05-02T17:26:51.981Z,5.18
2023-05-02T17:29:18.577Z,5.50
2023-05-02T17:31:45.098Z,5.57
2023-05-02T17:34:11.659Z,5.38
2023-05-02T17:36:41.736Z,5.18
2023-05-02T17:39:08.808Z,5.40
2023-05-02T17:41:36.572Z,6.10
2023-05-02T17:44:04.748Z,6.28
2023-05-02T17:46:31.648Z,6.35
2023-05-02T17:48:58.091Z,6.35
2023-05-02T17:51:24.426Z,6.30
2023-05-02T17:53:51.597Z,6.40
2023-05-02T17:56:18.807Z,6.10
2023-05-02T17:58:45.362Z,5.50
2023-05-02T18:01:13.784Z,5.15
2023-05-02T18:03:41.758Z,5.40
2023-05-02T18:06:08.890Z,5.27
2023-05-02T18:08:35.470Z,4.90
2023-05-02T18:11:03.136Z,5.25
2023-05-02T18:13:29.576Z,5.10
2023-05-02T18:16:01.269Z,4.70
2023-05-02T18:18:27.702Z,5.30
2023-05-02T18:20:54.061Z,4.70
2023-05-02T18:23:20.481Z,4.88
2023-05-02T18:25:46.811Z,4.90
2023-05-02T18:28:13.454Z,5.25
2023-05-02T18:30:39.993Z,4.30
2023-05-02T18:33:07.755Z,4.38
2023-05-02T18:35:34.301Z,4.60
2023-05-02T18:38:00.921Z,4.30
2023-05-02T18:40:27.362Z,4.68
2023-05-02T18:42:53.777Z,4.80
2023-05-02T18:45:21.027Z,4.85
2023-05-02T18:47:47.536Z,5.03
2023-05-02T18:50:13.968Z,4.68
2023-05-02T18:52:40.409Z,4.65
2023-05-02T18:55:07.312Z,5.03
2023-05-02T18:57:33.933Z,5.25
2023-05-02T19:00:00.930Z,5.30
2023-05-02T19:02:27.482Z,4.72
2023-05-02T19:04:55.181Z,5.20
2023-05-02T19:07:21.581Z,4.70
2023-05-02T19:09:48.055Z,4.97
2023-05-02T19:12:14.414Z,5.00
2023-05-02T19:14:41.183Z,5.05
2023-05-02T19:17:07.630Z,5.00
2023-05-02T19:19:34.010Z,5.30
2023-05-02T19:22:00.356Z,4.60
2023-05-02T19:24:26.843Z,5.43
2023-05-02T19:26:53.288Z,5.97
2023-05-02T19:29:19.647Z,5.80
2023-05-02T19:31:46.310Z,5.50
2023-05-02T19:34:12.809Z,5.28
2023-05-02T19:36:39.147Z,5.70
2023-05-02T19:39:05.632Z,5.63
2023-05-02T19:41:32.010Z,5.82
2023-05-02T19:43:59.849Z,5.67
2023-05-02T19:46:26.755Z,5.57
2023-05-02T19:48:53.264Z,5.68
2023-05-02T19:51:25.185Z,5.93
2023-05-02T19:53:53.010Z,5.95
2023-05-02T19:56:21.461Z,5.30
2023-05-02T19:58:47.794Z,5.70
2023-05-02T20:01:14.670Z,6.20
2023-05-02T20:03:41.136Z,5.45
2023-05-02T20:06:07.753Z,5.40
2023-05-02T20:08:34.377Z,5.17
2023-05-02T20:11:00.986Z,5.28
2023-05-02T20:13:27.556Z,4.53
2023-05-02T20:15:54.171Z,4.40
2023-05-02T20:18:20.834Z,4.15
2023-05-02T20:20:47.221Z,3.80
2023-05-02T20:23:14.051Z,3.92
2023-05-02T20:25:41.216Z,4.10
2023-05-02T20:28:08.936Z,3.63
2023-05-02T20:30:35.560Z,3.80
2023-05-02T20:33:14.030Z,3.80
2023-05-02T20:35:42.323Z,4.13
2023-05-02T20:38:08.684Z,3.17
2023-05-02T20:40:39.132Z,3.85
2023-05-02T20:43:06.186Z,3.33
2023-05-02T20:45:32.554Z,3.50
2023-05-02T20:47:59.047Z,3.40
2023-05-02T20:50:26.565Z,3.80
2023-05-02T20:52:52.982Z,3.58
2023-05-02T20:55:20.245Z,3.70
2023-05-02T20:57:50.991Z,4.10
2023-05-02T21:00:18.191Z,4.00
2023-05-02T21:02:44.614Z,4.00
2023-05-02T21:05:11.188Z,4.00
2023-05-02T21:07:40.312Z,4.05
2023-05-02T21:10:08.873Z,3.70
2023-05-02T21:12:35.209Z,3.70
2023-05-02T21:15:01.597Z,3.63
2023-05-02T21:17:28.588Z,3.80
2023-05-02T21:19:56.018Z,3.13
2023-05-02T21:22:22.358Z,3.00
2023-05-02T21:24:50.109Z,2.85
2023-05-02T21:27:16.564Z,3.22
2023-05-02T21:29:43.040Z,3.03
2023-05-02T21:32:09.447Z,2.90
2023-05-02T21:34:36.025Z,3.00
2023-05-02T21:37:02.366Z,3.10
2023-05-02T21:39:28.787Z,2.90
2023-05-02T21:41:56.198Z,3.00
2023-05-02T21:44:22.568Z,2.70
2023-05-02T21:46:50.728Z,2.90
2023-05-02T21:49:17.150Z,3.30
2023-05-02T21:51:43.555Z,2.97
2023-05-02T21:54:09.991Z,2.80
2023-05-02T21:56:36.391Z,3.30
2023-05-02T21:59:02.892Z,2.87
2023-05-02T22:01:29.513Z,3.40
2023-05-02T22:03:57.723Z,3.00
2023-05-02T22:06:24.782Z,2.67
2023-05-02T22:08:51.478Z,2.80
2023-05-02T22:11:18.019Z,3.20
2023-05-02T22:13:44.449Z,2.80
2023-05-02T22:16:10.984Z,3.05
2023-05-02T22:18:37.465Z,3.15
2023-05-02T22:21:03.866Z,3.03
2023-05-02T22:23:30.962Z,3.63
2023-05-02T22:25:57.572Z,3.33
2023-05-02T22:28:24.124Z,3.25
2023-05-02T22:30:50.528Z,3.20
2023-05-02T22:33:16.855Z,3.13
2023-05-02T22:35:43.283Z,2.80
2023-05-02T22:38:15.041Z,3.08
2023-05-02T22:40:41.483Z,3.17
2023-05-02T22:43:08.234Z,3.60
2023-05-02T22:45:36.311Z,3.55
2023-05-02T22:48:02.927Z,2.97
2023-05-02T22:50:29.983Z,3.55
2023-05-02T22:52:56.960Z,3.83
2023-05-02T22:55:24.072Z,3.45
2023-05-02T22:57:50.426Z,3.50
2023-05-02T23:00:17.022Z,2.90
2023-05-02T23:02:43.413Z,3.60
2023-05-02T23:05:10.055Z,3.70
2023-05-02T23:07:36.472Z,4.00
2023-05-02T23:10:03.086Z,3.83
2023-05-02T23:12:29.743Z,3.60
2023-05-02T23:14:56.811Z,3.70
2023-05-02T23:17:23.254Z,4.00
2023-05-02T23:19:50.119Z,3.70
2023-05-02T23:22:16.560Z,3.85
2023-05-02T23:24:46.677Z,4.10
2023-05-02T23:27:13.329Z,3.83
2023-05-02T23:29:39.769Z,4.05
2023-05-02T23:32:07.978Z,4.03
2023-05-02T23:34:36.459Z,4.18
2023-05-02T23:37:05.641Z,4.10
2023-05-02T23:39:32.652Z,3.90
2023-05-02T23:41:59.539Z,4.18
2023-05-02T23:44:25.926Z,4.20
2023-05-02T23:46:52.306Z,3.58
2023-05-02T23:49:18.667Z,3.73
2023-05-02T23:51:45.078Z,3.65
2023-05-02T23:54:11.493Z,4.07
2023-05-02T23:56:37.849Z,3.53
2023-05-02T23:59:04.797Z,3.38
